Snowshoe, WV (26209)

10:13 AM EDT on July 12, 2014 (GMT -0400)
Snowshoe (KWVSNOWS3) Elev 3261 ft | 38.42 °N, 80.02 °W | Change Station

Current weather conditions updated 2 minutes ago

Scattered Clouds
Scattered Clouds
70.1 °F
Feels Like 74 °F
N
7.0
Wind Variable Wind from SW

Today is forecast to be nearly the same temperature as yesterday.

Today
High -- | Low -- °F
--% Chance of Precip.
Yesterday
High -- | Low -- °F
Precip. -- in
6:06 AM 8:44 PM
Full, 100% visible
Pressure 30.37 in
Visibility 10.0 miles
Clouds Scattered Clouds 1300 ft
Heat Index 74 °F
Dew Point 60 °F
Humidity 71%
Rainfall 0.00 in
Snow Depth Not available.
UV 5 out of 12
Pollen 3.70 out of 12
Air Quality Not available.
Flu Activity Sporadic
METAR KHSP 121355Z AUTO 24006KT 10SM SCT013 20/15 A3037 RMK AO2 T02030152

More Conditions Fewer Conditions

Pressure 30.37 in
Visibility 10.0 miles
Clouds Scattered Clouds 1300 ft
Heat Index 74 °F
Dew Point 60 °F
Humidity 71%
Rainfall 0.00 in
Snow Depth Not available.
UV 5 out of 12
Pollen 3.70 out of 12
Air Quality Not available.
Flu Activity Sporadic
METAR KHSP 121355Z AUTO 24006KT 10SM SCT013 20/15 A3037 RMK AO2 T02030152

More Conditions Fewer Conditions

10-Day Weather Forecast

Almanac

Astronomy

Jul. 12, 2014 Rise Set
Actual Time 6:06 AM EDT 8:44 PM EDT
Civil Twilight 5:35 AM EDT 9:15 PM EDT
Nautical Twilight 4:56 AM EDT 9:54 PM EDT
Astronomical Twilight 4:13 AM EDT 10:37 PM EDT
Moon 8:47 PM EDT 6:22 AM EDT
Length of Visible Light 15h 40m
Length of Day
14h 38m
Tomorrow will be 1m 8s shorter.
Full, 100% of the Moon is Illuminated
Today
Full
Jul 18
Last Quarter
Jul 26
New
Aug 3
First Quarter
Aug 10
Full

Today's Extremes

State Highs State Lows

Community

WunderPhotos

Upload Photos

1,732,839 photos uploaded!

WunderBlogs® & News

Nearby

Snow Depth

Station Depth Elevation
No new snow has been reported.

Earthquake Activity

City Distance Mag. Time & Date
No recent earthquake activity has been reported nearby.
Minimum magnitude displayed is 2.5.

Coastal Water Temperatures

Place Temperature
No Stations Reporting

Nearby Weather Stations

Station Location Temp. Heat Index Dew Point Humidity Wind Precip. Elev Updated Type
Snowshoe, Snowshoe, WV 70.1 °F 74 °F 60 °F 71% SW  at  7.0 mph - / hr 3261 ft 10:10 AM EDT Normal
HADS PICKENS WV, Pickens, WV 72 °F - - - North  at  - 0.00 in / hr 2879 ft 8:45 AM EDT MADIS
Green Bank Observatory, near 140ft teles, Green Bank, WV 74.2 °F 76 °F 65 °F 73% NW  at  4.6 mph 0.00 in / hr 2688 ft 10:10 AM EDT Normal
KC8LRN and N8SUE, Pocahontas County Hillsboro, WV 69.4 °F - 64 °F 83% SSE  at  0.0 mph 0.00 in / hr 2400 ft 10:13 AM EDT Rapid Fire
Webster Springs, Webster Springs, WV 74.8 °F 76 °F 66 °F 75% NNE  at  0.0 mph 0.00 in / hr 1526 ft 9:36 AM EDT Normal

Show More Stations Show Fewer Stations